»·PEaware :: FFT180 KBZN-KSLC

FFT180 :: KBZN-KSLC

FLIGHT INFORMATION

Flight Status: Arrived
Operator:
Frontier Airlines
More flights by this operator :: More flights under this callsign
Pilot: Etienne B. (28927)
Aircraft: AIRBUS A320
(A320)
More flights by this aircraft type
Origin: KBZN Gallatin
United States
Destination: KSLC Salt Lake City Intl
United States
More flights between these airports :: More routes between these airports
Route: +TEERX4 DBS NORDK6
File this flight plan on PilotEdge
Remarks: RMK / SIMBRIEF
Altitude:
(Current/Filed)
35,000ft
Speed:
(Current/Filed)
445kts
Departed: 23-Apr-20 04:35 PM
Arrived: 23-Apr-20 05:33 PM
Distance/Time
Traveled:
301nm/0:58
Distance/Time
To Go:
Arrived

Flight Plot

Page will automatically refresh every two minutes.

Flight plan parsing failed; only flown route is shown


Map Options




Map Legend


Flown Route
Filed Route
Departure Airport
Arrival Airport
Navaid (VOR, NDB)
Fix

Horizontal Profiles

Position Reports

Time Latitude Longitude Heading Altitude Ground
Speed
23-Apr-20 16:18 45.778568 -111.160030 225 4458ft 0kts
23-Apr-20 16:19 45.778568 -111.160030 225 4458ft 0kts
23-Apr-20 16:20 45.778568 -111.160030 225 4458ft 0kts
23-Apr-20 16:21 45.778568 -111.160030 225 4458ft 0kts
23-Apr-20 16:22 45.778568 -111.160030 225 4458ft 0kts
23-Apr-20 16:23 45.778568 -111.160030 225 4458ft 0kts
23-Apr-20 16:24 45.778568 -111.160030 225 4458ft 0kts
23-Apr-20 16:25 45.778569 -111.160029 225 4458ft 0kts
23-Apr-20 16:26 45.778820 -111.159589 248 4457ft 2kts
23-Apr-20 16:27 45.778756 -111.158771 307 4457ft 2kts
23-Apr-20 16:28 45.778668 -111.158632 316 4457ft 0kts
23-Apr-20 16:29 45.778668 -111.158633 316 4457ft 0kts
23-Apr-20 16:30 45.778972 -111.159021 328 4457ft 4kts
23-Apr-20 16:31 45.781025 -111.160880 317 4453ft 16kts
23-Apr-20 16:32 45.784618 -111.165867 315 4443ft 20kts
23-Apr-20 16:33 45.787535 -111.167100 48 4436ft 10kts
23-Apr-20 16:34 45.779512 -111.154417 136 4454ft 149kts
23-Apr-20 16:35 45.736798 -111.143623 222 6785ft 193kts
23-Apr-20 16:36 45.702534 -111.210156 267 9026ft 229kts
23-Apr-20 16:37 45.708701 -111.309550 283 11287ft 277kts
23-Apr-20 16:38 45.722961 -111.428001 282 13141ft 328kts
23-Apr-20 16:39 45.737407 -111.558724 279 15624ft 339kts
23-Apr-20 16:40 45.689953 -111.670131 203 16034ft 378kts
23-Apr-20 16:41 45.586535 -111.705754 197 16689ft 388kts
23-Apr-20 16:42 45.480253 -111.742096 198 18849ft 399kts
23-Apr-20 16:43 45.371004 -111.779610 198 20767ft 410kts
23-Apr-20 16:44 45.258965 -111.817955 198 22507ft 421kts
23-Apr-20 16:45 45.143712 -111.857239 198 24106ft 431kts
23-Apr-20 16:46 45.025309 -111.897444 199 25441ft 445kts
23-Apr-20 16:47 44.903383 -111.938656 200 26675ft 457kts
23-Apr-20 16:48 44.779163 -111.980432 200 27909ft 464kts
23-Apr-20 16:49 44.652664 -112.022797 200 29073ft 470kts
23-Apr-20 16:50 44.523834 -112.065757 200 30118ft 477kts
23-Apr-20 16:51 44.393964 -112.108872 200 31039ft 483kts
23-Apr-20 16:52 44.264318 -112.151649 201 32410ft 476kts
23-Apr-20 16:53 44.136257 -112.193776 201 33578ft 471kts
23-Apr-20 16:54 44.002565 -112.187341 176 34514ft 498kts
23-Apr-20 16:55 43.867542 -112.151985 176 35067ft 495kts
23-Apr-20 16:56 43.732348 -112.117152 176 35076ft 496kts
23-Apr-20 16:57 43.598076 -112.082722 176 35084ft 496kts
23-Apr-20 16:58 43.463153 -112.048280 176 35091ft 497kts
23-Apr-20 16:59 43.328091 -112.013959 176 35093ft 497kts
23-Apr-20 17:00 43.192499 -111.979652 176 35091ft 497kts
23-Apr-20 17:01 43.056920 -111.945506 176 35081ft 497kts
23-Apr-20 17:02 42.921449 -111.911560 178 35026ft 501kts
23-Apr-20 17:03 42.784076 -111.877308 179 35024ft 510kts
23-Apr-20 17:04 42.646100 -111.864722 199 34740ft 484kts
23-Apr-20 17:05 42.512933 -111.887859 199 33787ft 483kts
23-Apr-20 17:06 42.381004 -111.910374 198 32815ft 475kts
23-Apr-20 17:07 42.251922 -111.932325 198 31849ft 465kts
23-Apr-20 17:08 42.125476 -111.953716 197 29144ft 459kts
23-Apr-20 17:09 42.001727 -111.974554 196 25348ft 439kts
23-Apr-20 17:10 41.889382 -111.993335 196 22683ft 395kts
23-Apr-20 17:11 41.785634 -112.010731 196 20919ft 360kts
23-Apr-20 17:12 41.687052 -112.026301 195 19201ft 353kts
23-Apr-20 17:13 41.590687 -112.041363 194 17493ft 345kts
23-Apr-20 17:14 41.492964 -112.057162 195 17028ft 360kts
23-Apr-20 17:15 41.394986 -112.078208 196 16022ft 351kts
23-Apr-20 17:16 41.298532 -112.099096 196 15433ft 348kts
23-Apr-20 17:17 41.203367 -112.119531 196 14683ft 343kts
23-Apr-20 17:18 41.109919 -112.139642 195 13548ft 336kts
23-Apr-20 17:19 41.016038 -112.134297 175 12405ft 341kts
23-Apr-20 17:20 40.925158 -112.114607 174 11408ft 313kts
23-Apr-20 17:22 40.844707 -112.102808 178 11019ft 288kts
23-Apr-20 17:23 40.765111 -112.093532 178 10344ft 284kts
23-Apr-20 17:24 40.688534 -112.084540 178 9359ft 270kts
23-Apr-20 17:25 40.614911 -112.075947 177 8218ft 266kts
23-Apr-20 17:26 40.550659 -112.041715 106 7078ft 257kts
23-Apr-20 17:27 40.572245 -111.973832 3 6905ft 200kts
23-Apr-20 17:28 40.619146 -111.976456 350 7048ft 149kts
23-Apr-20 17:29 40.660245 -111.981682 351 6565ft 146kts
23-Apr-20 17:30 40.700563 -111.986645 350 5773ft 140kts
23-Apr-20 17:31 40.738613 -111.991121 352 5001ft 138kts
23-Apr-20 17:32 40.776399 -111.995659 352 4273ft 136kts
23-Apr-20 17:33 40.791572 -111.995378 74 4236ft 22kts
23-Apr-20 17:34 40.792193 -111.987462 84 4236ft 21kts
23-Apr-20 17:35 40.790049 -111.985196 87 4236ft 4kts
23-Apr-20 17:36 40.789652 -111.984733 198 4236ft 5kts

Navigation Log

Ident Type
Flight plan parsing failed, navigation log unavailable